createdAt,value
2022-10-26T05:06:04.763Z,99.90
2022-10-26T05:08:31.533Z,99.90
2022-10-26T05:10:58.210Z,99.90
2022-10-26T05:13:25.094Z,99.90
2022-10-26T05:15:54.812Z,99.90
2022-10-26T05:18:22.475Z,99.90
2022-10-26T05:20:52.136Z,99.90
2022-10-26T05:23:18.848Z,99.90
2022-10-26T05:25:46.154Z,99.90
2022-10-26T05:28:14.877Z,99.90
2022-10-26T05:30:43.159Z,99.90
2022-10-26T05:33:14.015Z,99.90
2022-10-26T05:35:41.190Z,99.90
2022-10-26T05:38:14.229Z,99.90
2022-10-26T05:40:51.135Z,99.90
2022-10-26T05:43:18.950Z,99.90
2022-10-26T05:45:45.983Z,99.90
2022-10-26T05:48:12.924Z,99.90
2022-10-26T05:50:39.582Z,99.90
2022-10-26T05:53:06.438Z,99.90
2022-10-26T05:55:33.422Z,99.90
2022-10-26T05:58:00.298Z,99.90
2022-10-26T06:00:29.026Z,99.90
2022-10-26T06:03:01.822Z,99.90
2022-10-26T06:05:32.050Z,99.90
2022-10-26T06:07:58.934Z,99.90
2022-10-26T06:10:26.111Z,99.90
2022-10-26T06:12:53.125Z,99.90
2022-10-26T06:15:21.874Z,99.90
2022-10-26T06:17:49.103Z,99.90
2022-10-26T06:20:40.144Z,99.90
2022-10-26T06:23:51.726Z,99.90
2022-10-26T06:26:42.126Z,99.90
2022-10-26T06:29:11.670Z,99.90
2022-10-26T06:31:38.443Z,99.90
2022-10-26T06:34:05.279Z,99.90
2022-10-26T06:36:33.176Z,99.90
2022-10-26T06:39:06.967Z,99.90
2022-10-26T06:41:35.958Z,99.90
2022-10-26T06:44:03.807Z,99.90
2022-10-26T06:46:36.678Z,99.90
2022-10-26T06:49:23.083Z,99.90
2022-10-26T06:52:01.323Z,99.90
2022-10-26T06:54:46.094Z,99.90
2022-10-26T06:57:15.190Z,99.90
2022-10-26T07:00:00.485Z,99.90
2022-10-26T07:02:27.649Z,99.90
2022-10-26T07:04:54.491Z,99.90
2022-10-26T07:07:24.618Z,99.90
2022-10-26T07:09:51.613Z,99.90
2022-10-26T07:12:18.583Z,99.90
2022-10-26T07:14:45.366Z,99.90
2022-10-26T07:17:12.254Z,99.90
2022-10-26T07:19:40.449Z,99.90
2022-10-26T07:22:07.195Z,99.90
2022-10-26T07:24:34.027Z,99.90
2022-10-26T07:27:00.710Z,99.90
2022-10-26T07:29:28.020Z,99.90
2022-10-26T07:34:21.282Z,99.90
2022-10-26T07:36:47.958Z,99.90
2022-10-26T07:39:14.657Z,99.90
2022-10-26T07:41:41.361Z,99.90
2022-10-26T07:44:08.041Z,99.90
2022-10-26T07:46:34.777Z,99.90
2022-10-26T07:49:01.457Z,99.90
2022-10-26T07:51:28.331Z,99.90
2022-10-26T07:53:55.007Z,99.90
2022-10-26T07:56:21.794Z,99.90
2022-10-26T07:58:48.487Z,99.90
2022-10-26T08:01:16.328Z,99.90
2022-10-26T08:03:43.206Z,99.90
2022-10-26T08:06:10.490Z,99.90
2022-10-26T08:08:37.620Z,99.90
2022-10-26T08:11:04.995Z,99.90
2022-10-26T08:13:32.238Z,99.90
2022-10-26T08:16:06.033Z,99.90
2022-10-26T08:18:32.991Z,99.90
2022-10-26T08:21:10.875Z,99.90
2022-10-26T08:23:39.272Z,99.90
2022-10-26T08:26:06.401Z,99.90
2022-10-26T08:28:33.106Z,99.90
2022-10-26T08:30:59.884Z,99.90
2022-10-26T08:33:26.630Z,99.90
2022-10-26T08:36:00.717Z,99.90
2022-10-26T08:38:28.054Z,99.90
2022-10-26T08:40:57.726Z,99.90
2022-10-26T08:43:34.644Z,99.90
2022-10-26T08:46:17.449Z,99.90
2022-10-26T08:48:55.789Z,99.90
2022-10-26T08:51:26.720Z,99.90
2022-10-26T08:54:03.922Z,99.90
2022-10-26T08:57:15.694Z,99.90
2022-10-26T08:59:59.119Z,99.90
2022-10-26T09:02:25.974Z,99.90
2022-10-26T09:04:55.106Z,99.90
2022-10-26T09:07:46.149Z,99.90
2022-10-26T09:10:15.905Z,99.90
2022-10-26T09:12:54.511Z,99.90
2022-10-26T09:15:39.087Z,99.90
2022-10-26T09:18:42.718Z,99.90
2022-10-26T09:21:35.827Z,99.90
2022-10-26T09:24:15.318Z,99.90
2022-10-26T09:26:59.953Z,99.90
2022-10-26T09:29:36.755Z,99.90
2022-10-26T09:32:04.812Z,99.90
2022-10-26T09:34:43.243Z,99.90
2022-10-26T09:37:28.176Z,99.90
2022-10-26T09:40:26.867Z,99.90
2022-10-26T09:43:07.020Z,99.90
2022-10-26T09:45:39.439Z,99.90
2022-10-26T09:48:15.926Z,99.90
2022-10-26T09:50:49.841Z,99.90
2022-10-26T09:53:16.825Z,99.90
2022-10-26T09:55:46.764Z,99.90
2022-10-26T09:58:24.462Z,99.90
2022-10-26T10:00:52.755Z,99.90
2022-10-26T10:03:30.853Z,99.90
2022-10-26T10:06:20.789Z,99.90
2022-10-26T10:09:24.260Z,99.90
2022-10-26T10:12:01.136Z,99.90
2022-10-26T10:14:58.504Z,99.90
2022-10-26T10:17:25.737Z,99.90
2022-10-26T10:19:52.784Z,99.90
2022-10-26T10:22:24.212Z,99.90
2022-10-26T10:25:00.003Z,99.90
2022-10-26T10:27:28.209Z,99.90
2022-10-26T10:29:59.968Z,99.90
2022-10-26T10:32:35.421Z,99.90
2022-10-26T10:35:23.828Z,99.90
2022-10-26T10:37:51.620Z,99.90
2022-10-26T10:40:21.342Z,99.90
2022-10-26T10:42:49.984Z,99.90
2022-10-26T10:45:29.680Z,99.90
2022-10-26T10:48:21.399Z,99.90
2022-10-26T10:51:03.511Z,99.90
2022-10-26T10:53:30.140Z,99.90
2022-10-26T10:56:04.451Z,99.90
2022-10-26T10:59:15.305Z,99.90
2022-10-26T11:02:01.239Z,99.90
2022-10-26T11:04:27.946Z,99.90
2022-10-26T11:07:00.684Z,99.90
2022-10-26T11:09:30.500Z,99.90
2022-10-26T11:12:09.594Z,99.90
2022-10-26T11:14:43.373Z,99.90
2022-10-26T11:17:18.093Z,99.60
2022-10-26T11:20:12.558Z,99.70
2022-10-26T11:22:58.422Z,99.60
2022-10-26T11:25:34.890Z,99.30
2022-10-26T11:28:10.874Z,99.70
2022-10-26T11:30:43.955Z,99.60
2022-10-26T11:33:25.941Z,99.90
2022-10-26T11:35:59.699Z,99.10
2022-10-26T11:38:56.742Z,99.80
2022-10-26T11:41:31.198Z,99.90
2022-10-26T11:44:17.006Z,99.60
2022-10-26T11:46:49.733Z,99.90
2022-10-26T11:49:22.875Z,99.90
2022-10-26T11:52:17.854Z,99.90
2022-10-26T11:54:53.731Z,99.40
2022-10-26T11:57:22.866Z,99.90
2022-10-26T11:59:57.059Z,99.90
2022-10-26T12:02:25.615Z,99.90
2022-10-26T12:05:26.587Z,99.90
2022-10-26T12:08:01.481Z,99.90
2022-10-26T12:10:31.630Z,99.90
2022-10-26T12:13:07.627Z,99.90
2022-10-26T12:18:55.944Z,99.90
2022-10-26T12:21:27.583Z,99.90
2022-10-26T12:23:59.747Z,99.90
2022-10-26T12:26:26.458Z,99.90
2022-10-26T12:29:01.940Z,99.90
2022-10-26T12:31:48.964Z,98.40
2022-10-26T12:34:45.235Z,98.50
2022-10-26T12:37:31.313Z,97.80
2022-10-26T12:40:32.945Z,97.20
2022-10-26T12:43:15.048Z,97.20
2022-10-26T12:45:46.742Z,98.10
2022-10-26T12:48:44.473Z,98.10
2022-10-26T12:51:22.918Z,97.60
2022-10-26T12:54:07.674Z,97.70
2022-10-26T12:56:57.850Z,98.00
2022-10-26T12:59:42.910Z,97.80
2022-10-26T13:02:30.902Z,97.70
2022-10-26T13:05:08.283Z,98.30
2022-10-26T13:07:40.622Z,98.20
2022-10-26T13:10:21.531Z,98.70
2022-10-26T13:12:53.443Z,98.30
2022-10-26T13:15:28.795Z,98.20
2022-10-26T13:18:09.456Z,97.30
2022-10-26T13:20:50.872Z,97.80
2022-10-26T13:23:26.527Z,98.30
2022-10-26T13:26:17.681Z,98.90
2022-10-26T13:28:48.791Z,97.80
2022-10-26T13:31:33.402Z,98.60
2022-10-26T13:34:02.446Z,97.50
2022-10-26T13:36:44.258Z,98.90
2022-10-26T13:39:20.230Z,98.50
2022-10-26T13:41:51.144Z,98.60
2022-10-26T13:44:26.816Z,99.20
2022-10-26T13:47:04.965Z,98.40
2022-10-26T13:49:39.033Z,99.00
2022-10-26T13:52:13.452Z,98.60
2022-10-26T13:54:44.527Z,99.00
2022-10-26T13:57:20.463Z,99.30
2022-10-26T13:59:47.633Z,99.60
2022-10-26T14:02:23.602Z,99.60
2022-10-26T14:05:12.447Z,99.00
2022-10-26T14:07:56.765Z,99.60
2022-10-26T14:10:28.315Z,99.40
2022-10-26T14:12:55.553Z,99.90
2022-10-26T14:15:26.742Z,99.80
2022-10-26T14:17:55.106Z,99.90
2022-10-26T14:20:24.732Z,99.90
2022-10-26T14:22:51.971Z,99.90
2022-10-26T14:25:36.227Z,99.90
2022-10-26T14:28:24.086Z,99.90
2022-10-26T14:30:51.589Z,99.90
2022-10-26T14:33:20.673Z,99.90
2022-10-26T14:35:48.803Z,99.90
2022-10-26T14:38:32.427Z,99.90
2022-10-26T14:40:59.105Z,99.90
2022-10-26T14:43:26.783Z,99.90
2022-10-26T14:45:54.471Z,99.90
2022-10-26T14:48:30.470Z,99.90
2022-10-26T14:51:02.187Z,99.90
2022-10-26T14:53:38.811Z,99.90
2022-10-26T14:56:25.701Z,99.90
2022-10-26T14:58:53.437Z,99.90
2022-10-26T15:01:23.186Z,99.90
2022-10-26T15:03:58.175Z,99.90
2022-10-26T15:06:27.891Z,99.90
2022-10-26T15:08:57.200Z,99.90
2022-10-26T15:11:25.147Z,99.90
2022-10-26T15:13:52.104Z,99.90
2022-10-26T15:16:25.372Z,99.90
2022-10-26T15:19:07.575Z,99.90
2022-10-26T15:21:48.281Z,99.90
2022-10-26T15:24:34.603Z,99.90
2022-10-26T15:27:11.889Z,99.90
2022-10-26T15:29:38.520Z,99.90
2022-10-26T15:32:18.299Z,99.90
2022-10-26T15:34:50.351Z,99.90
2022-10-26T15:37:17.139Z,99.90
2022-10-26T15:39:43.854Z,99.90
2022-10-26T15:42:13.846Z,99.90
2022-10-26T15:44:40.655Z,99.90
2022-10-26T15:47:19.076Z,99.90
2022-10-26T15:49:46.672Z,99.90
2022-10-26T15:52:13.959Z,99.90
2022-10-26T15:54:40.706Z,99.90
2022-10-26T15:57:13.690Z,99.90
2022-10-26T15:59:42.217Z,99.90
2022-10-26T16:02:16.433Z,99.90
2022-10-26T16:04:43.306Z,99.90
2022-10-26T16:07:14.702Z,99.90
2022-10-26T16:09:42.679Z,99.90
2022-10-26T16:12:13.169Z,99.90
2022-10-26T16:15:04.150Z,99.90
2022-10-26T16:17:27.145Z,99.90
2022-10-26T16:19:53.876Z,99.90
2022-10-26T16:22:20.534Z,99.90
2022-10-26T16:24:47.210Z,99.90
2022-10-26T16:27:13.891Z,99.90
2022-10-26T16:29:40.607Z,99.90
2022-10-26T16:32:07.262Z,99.90
2022-10-26T16:34:33.927Z,99.90
2022-10-26T16:37:00.591Z,99.90
2022-10-26T16:39:27.261Z,99.90
2022-10-26T16:41:53.934Z,99.90
2022-10-26T16:44:20.569Z,99.90
2022-10-26T16:46:48.046Z,99.90
2022-10-26T16:49:14.752Z,99.90
2022-10-26T16:51:41.450Z,99.90
2022-10-26T16:54:08.162Z,99.90
2022-10-26T16:56:34.879Z,99.90
2022-10-26T16:59:01.587Z,99.90
2022-10-26T17:01:28.525Z,99.90
2022-10-26T17:03:56.062Z,99.90
2022-10-26T17:06:22.782Z,99.90
2022-10-26T17:08:49.489Z,99.90
2022-10-26T17:11:18.789Z,99.90
2022-10-26T17:13:46.451Z,99.90
2022-10-26T17:16:16.286Z,99.90
2022-10-26T17:18:43.918Z,99.90
